sensor_id;sensor_type;location;lat;lon;timestamp;temperature;humidity
32612;DHT22;19030;49.478;8.986;2022-09-09T00:03:51;13.20;99.90
32612;DHT22;19030;49.478;8.986;2022-09-09T00:06:23;13.20;99.90
32612;DHT22;19030;49.478;8.986;2022-09-09T00:08:47;13.20;99.90
32612;DHT22;19030;49.478;8.986;2022-09-09T00:10:58;13.20;99.90
32612;DHT22;19030;49.478;8.986;2022-09-09T00:15:24;13.10;99.90
32612;DHT22;19030;49.478;8.986;2022-09-09T00:17:38;13.10;99.90
32612;DHT22;19030;49.478;8.986;2022-09-09T00:19:49;13.10;99.90
32612;DHT22;19030;49.478;8.986;2022-09-09T00:24:43;13.20;99.90
32612;DHT22;19030;49.478;8.986;2022-09-09T00:26:48;13.10;99.90
32612;DHT22;19030;49.478;8.986;2022-09-09T00:29:14;13.10;99.90
32612;DHT22;19030;49.478;8.986;2022-09-09T00:31:29;13.10;99.90
32612;DHT22;19030;49.478;8.986;2022-09-09T00:33:30;13.10;99.90
32612;DHT22;19030;49.478;8.986;2022-09-09T00:35:36;13.10;99.90
32612;DHT22;19030;49.478;8.986;2022-09-09T00:37:37;13.10;99.90
32612;DHT22;19030;49.478;8.986;2022-09-09T00:39:41;13.10;99.90
32612;DHT22;19030;49.478;8.986;2022-09-09T00:44:27;13.10;99.90
32612;DHT22;19030;49.478;8.986;2022-09-09T00:46:50;13.10;99.90
32612;DHT22;19030;49.478;8.986;2022-09-09T00:51:00;13.10;99.90
32612;DHT22;19030;49.478;8.986;2022-09-09T00:55:43;13.10;99.90
32612;DHT22;19030;49.478;8.986;2022-09-09T00:57:46;13.10;99.90
32612;DHT22;19030;49.478;8.986;2022-09-09T01:00:39;13.10;99.90
32612;DHT22;19030;49.478;8.986;2022-09-09T01:02:31;13.10;99.90
32612;DHT22;19030;49.478;8.986;2022-09-09T01:04:36;13.10;99.90
32612;DHT22;19030;49.478;8.986;2022-09-09T01:06:37;13.10;99.90
32612;DHT22;19030;49.478;8.986;2022-09-09T01:11:22;13.20;99.90
32612;DHT22;19030;49.478;8.986;2022-09-09T01:13:29;13.20;99.90
32612;DHT22;19030;49.478;8.986;2022-09-09T01:15:39;13.20;99.90
32612;DHT22;19030;49.478;8.986;2022-09-09T01:19:58;13.10;99.90
32612;DHT22;19030;49.478;8.986;2022-09-09T01:22:15;13.10;99.90
32612;DHT22;19030;49.478;8.986;2022-09-09T01:26:58;13.00;99.90
32612;DHT22;19030;49.478;8.986;2022-09-09T01:29:00;13.00;99.90
32612;DHT22;19030;49.478;8.986;2022-09-09T01:31:13;12.90;99.90
32612;DHT22;19030;49.478;8.986;2022-09-09T01:33:18;13.00;99.90
32612;DHT22;19030;49.478;8.986;2022-09-09T01:35:39;13.00;99.90
32612;DHT22;19030;49.478;8.986;2022-09-09T01:37:42;13.00;99.90
32612;DHT22;19030;49.478;8.986;2022-09-09T01:39:44;13.00;99.90
32612;DHT22;19030;49.478;8.986;2022-09-09T01:41:48;13.00;99.90
32612;DHT22;19030;49.478;8.986;2022-09-09T01:43:53;13.00;99.90
32612;DHT22;19030;49.478;8.986;2022-09-09T01:45:58;13.00;99.90
32612;DHT22;19030;49.478;8.986;2022-09-09T01:48:00;13.00;99.90
32612;DHT22;19030;49.478;8.986;2022-09-09T01:50:20;13.00;99.90
32612;DHT22;19030;49.478;8.986;2022-09-09T01:52:21;13.00;99.90
32612;DHT22;19030;49.478;8.986;2022-09-09T01:54:25;13.00;99.90
32612;DHT22;19030;49.478;8.986;2022-09-09T01:56:47;13.00;99.90
32612;DHT22;19030;49.478;8.986;2022-09-09T01:59:03;13.00;99.90
32612;DHT22;19030;49.478;8.986;2022-09-09T02:01:21;13.10;99.90
32612;DHT22;19030;49.478;8.986;2022-09-09T02:03:27;13.00;99.90
32612;DHT22;19030;49.478;8.986;2022-09-09T02:05:45;13.10;99.90
32612;DHT22;19030;49.478;8.986;2022-09-09T02:08:15;13.00;99.90
32612;DHT22;19030;49.478;8.986;2022-09-09T02:10:56;13.00;99.90
32612;DHT22;19030;49.478;8.986;2022-09-09T02:13:17;13.00;99.90
32612;DHT22;19030;49.478;8.986;2022-09-09T02:17:41;13.00;99.90
32612;DHT22;19030;49.478;8.986;2022-09-09T02:19:51;13.00;99.90
32612;DHT22;19030;49.478;8.986;2022-09-09T02:22:00;13.10;99.90
32612;DHT22;19030;49.478;8.986;2022-09-09T02:24:04;13.10;99.90
32612;DHT22;19030;49.478;8.986;2022-09-09T02:26:10;13.10;99.90
32612;DHT22;19030;49.478;8.986;2022-09-09T02:28:15;13.00;99.90
32612;DHT22;19030;49.478;8.986;2022-09-09T02:30:18;13.00;99.90
32612;DHT22;19030;49.478;8.986;2022-09-09T02:32:27;13.00;99.90
32612;DHT22;19030;49.478;8.986;2022-09-09T02:34:34;13.00;99.90
32612;DHT22;19030;49.478;8.986;2022-09-09T02:36:37;13.00;99.90
32612;DHT22;19030;49.478;8.986;2022-09-09T02:38:45;13.00;99.90
32612;DHT22;19030;49.478;8.986;2022-09-09T02:40:49;13.00;99.90
32612;DHT22;19030;49.478;8.986;2022-09-09T02:42:49;12.90;99.90
32612;DHT22;19030;49.478;8.986;2022-09-09T02:44:52;12.90;99.90
32612;DHT22;19030;49.478;8.986;2022-09-09T02:47:20;12.90;99.90
32612;DHT22;19030;49.478;8.986;2022-09-09T02:51:35;12.90;99.90
32612;DHT22;19030;49.478;8.986;2022-09-09T02:56:00;12.90;99.90
32612;DHT22;19030;49.478;8.986;2022-09-09T02:58:05;13.00;99.90
32612;DHT22;19030;49.478;8.986;2022-09-09T03:00:08;13.00;99.90
32612;DHT22;19030;49.478;8.986;2022-09-09T03:02:11;13.00;99.90
32612;DHT22;19030;49.478;8.986;2022-09-09T03:04:14;13.00;99.90
32612;DHT22;19030;49.478;8.986;2022-09-09T03:06:15;13.00;99.90
32612;DHT22;19030;49.478;8.986;2022-09-09T03:08:19;13.00;99.90
32612;DHT22;19030;49.478;8.986;2022-09-09T03:10:20;13.00;99.90
32612;DHT22;19030;49.478;8.986;2022-09-09T03:12:21;12.90;99.90
32612;DHT22;19030;49.478;8.986;2022-09-09T03:14:23;13.00;99.90
32612;DHT22;19030;49.478;8.986;2022-09-09T03:16:25;13.00;99.90
32612;DHT22;19030;49.478;8.986;2022-09-09T03:18:28;13.00;99.90
32612;DHT22;19030;49.478;8.986;2022-09-09T03:20:29;13.00;99.90
32612;DHT22;19030;49.478;8.986;2022-09-09T03:22:31;12.90;99.90
32612;DHT22;19030;49.478;8.986;2022-09-09T03:24:34;12.90;99.90
32612;DHT22;19030;49.478;8.986;2022-09-09T03:26:37;12.90;99.90
32612;DHT22;19030;49.478;8.986;2022-09-09T03:28:38;12.80;99.90
32612;DHT22;19030;49.478;8.986;2022-09-09T03:30:40;12.80;99.90
32612;DHT22;19030;49.478;8.986;2022-09-09T03:32:41;12.70;99.90
32612;DHT22;19030;49.478;8.986;2022-09-09T03:34:41;12.70;99.90
32612;DHT22;19030;49.478;8.986;2022-09-09T03:36:45;12.70;99.90
32612;DHT22;19030;49.478;8.986;2022-09-09T03:38:49;12.70;99.90
32612;DHT22;19030;49.478;8.986;2022-09-09T03:40:51;12.70;99.90
32612;DHT22;19030;49.478;8.986;2022-09-09T03:42:56;12.70;99.90
32612;DHT22;19030;49.478;8.986;2022-09-09T03:44:59;12.70;99.90
32612;DHT22;19030;49.478;8.986;2022-09-09T03:47:00;12.70;99.90
32612;DHT22;19030;49.478;8.986;2022-09-09T03:49:01;12.70;99.90
32612;DHT22;19030;49.478;8.986;2022-09-09T03:51:04;12.70;99.90
32612;DHT22;19030;49.478;8.986;2022-09-09T03:53:06;12.70;99.90
32612;DHT22;19030;49.478;8.986;2022-09-09T03:55:07;12.60;99.90
32612;DHT22;19030;49.478;8.986;2022-09-09T03:57:09;12.60;99.90
32612;DHT22;19030;49.478;8.986;2022-09-09T03:59:11;12.50;99.90
32612;DHT22;19030;49.478;8.986;2022-09-09T04:01:13;12.50;99.90
32612;DHT22;19030;49.478;8.986;2022-09-09T04:03:15;12.50;99.90
32612;DHT22;19030;49.478;8.986;2022-09-09T04:05:16;12.50;99.90
32612;DHT22;19030;49.478;8.986;2022-09-09T04:07:18;12.40;99.90
32612;DHT22;19030;49.478;8.986;2022-09-09T04:09:19;12.50;99.90
32612;DHT22;19030;49.478;8.986;2022-09-09T04:11:20;12.50;99.90
32612;DHT22;19030;49.478;8.986;2022-09-09T04:13:24;12.50;99.90
32612;DHT22;19030;49.478;8.986;2022-09-09T04:15:25;12.50;99.90
32612;DHT22;19030;49.478;8.986;2022-09-09T04:17:25;12.50;99.90
32612;DHT22;19030;49.478;8.986;2022-09-09T04:19:26;12.50;99.90
32612;DHT22;19030;49.478;8.986;2022-09-09T04:21:27;12.50;99.90
32612;DHT22;19030;49.478;8.986;2022-09-09T04:23:28;12.50;99.90
32612;DHT22;19030;49.478;8.986;2022-09-09T04:25:30;12.60;99.90
32612;DHT22;19030;49.478;8.986;2022-09-09T04:27:31;12.60;99.90
32612;DHT22;19030;49.478;8.986;2022-09-09T04:29:32;12.60;99.90
32612;DHT22;19030;49.478;8.986;2022-09-09T04:31:33;12.60;99.90
32612;DHT22;19030;49.478;8.986;2022-09-09T04:33:35;12.60;99.90
32612;DHT22;19030;49.478;8.986;2022-09-09T04:35:36;12.60;99.90
32612;DHT22;19030;49.478;8.986;2022-09-09T04:37:37;12.60;99.90
32612;DHT22;19030;49.478;8.986;2022-09-09T04:39:38;12.60;99.90
32612;DHT22;19030;49.478;8.986;2022-09-09T04:41:40;12.70;99.90
32612;DHT22;19030;49.478;8.986;2022-09-09T04:43:40;12.70;99.90
32612;DHT22;19030;49.478;8.986;2022-09-09T04:45:43;12.70;99.90
32612;DHT22;19030;49.478;8.986;2022-09-09T04:47:44;12.70;99.90
32612;DHT22;19030;49.478;8.986;2022-09-09T04:49:45;12.70;99.90
32612;DHT22;19030;49.478;8.986;2022-09-09T04:51:46;12.70;99.90
32612;DHT22;19030;49.478;8.986;2022-09-09T04:53:50;12.70;99.90
32612;DHT22;19030;49.478;8.986;2022-09-09T04:56:07;12.70;99.90
32612;DHT22;19030;49.478;8.986;2022-09-09T04:58:14;12.70;99.90
32612;DHT22;19030;49.478;8.986;2022-09-09T05:00:16;12.70;99.90
32612;DHT22;19030;49.478;8.986;2022-09-09T05:02:18;12.80;99.90
32612;DHT22;19030;49.478;8.986;2022-09-09T05:04:18;12.80;99.90
32612;DHT22;19030;49.478;8.986;2022-09-09T05:06:21;12.80;99.90
32612;DHT22;19030;49.478;8.986;2022-09-09T05:08:24;12.80;99.90
32612;DHT22;19030;49.478;8.986;2022-09-09T05:10:24;12.80;99.90
32612;DHT22;19030;49.478;8.986;2022-09-09T05:12:27;12.90;99.90
32612;DHT22;19030;49.478;8.986;2022-09-09T05:14:27;12.90;99.90
32612;DHT22;19030;49.478;8.986;2022-09-09T05:16:29;12.90;99.90
32612;DHT22;19030;49.478;8.986;2022-09-09T05:18:30;12.90;99.90
32612;DHT22;19030;49.478;8.986;2022-09-09T05:20:31;13.00;99.90
32612;DHT22;19030;49.478;8.986;2022-09-09T05:22:32;13.00;99.90
32612;DHT22;19030;49.478;8.986;2022-09-09T05:24:34;13.00;99.90
32612;DHT22;19030;49.478;8.986;2022-09-09T05:26:35;13.00;99.90
32612;DHT22;19030;49.478;8.986;2022-09-09T05:28:37;13.10;99.90
32612;DHT22;19030;49.478;8.986;2022-09-09T05:30:37;13.10;99.90
32612;DHT22;19030;49.478;8.986;2022-09-09T05:32:40;13.10;99.90
32612;DHT22;19030;49.478;8.986;2022-09-09T05:34:41;13.10;99.90
32612;DHT22;19030;49.478;8.986;2022-09-09T05:36:41;13.10;99.90
32612;DHT22;19030;49.478;8.986;2022-09-09T05:38:43;13.10;99.90
32612;DHT22;19030;49.478;8.986;2022-09-09T05:40:47;13.00;99.90
32612;DHT22;19030;49.478;8.986;2022-09-09T05:42:49;13.00;99.90
32612;DHT22;19030;49.478;8.986;2022-09-09T05:44:49;13.00;99.90
32612;DHT22;19030;49.478;8.986;2022-09-09T05:46:51;13.10;99.90
32612;DHT22;19030;49.478;8.986;2022-09-09T05:48:52;13.10;99.90
32612;DHT22;19030;49.478;8.986;2022-09-09T05:50:56;13.20;99.90
32612;DHT22;19030;49.478;8.986;2022-09-09T05:52:56;13.30;99.90
32612;DHT22;19030;49.478;8.986;2022-09-09T05:54:57;13.30;99.90
32612;DHT22;19030;49.478;8.986;2022-09-09T05:56:57;13.30;99.90
32612;DHT22;19030;49.478;8.986;2022-09-09T05:58:58;13.40;99.90
32612;DHT22;19030;49.478;8.986;2022-09-09T06:01:10;13.40;99.90
32612;DHT22;19030;49.478;8.986;2022-09-09T06:03:12;13.40;99.90
32612;DHT22;19030;49.478;8.986;2022-09-09T06:05:13;13.50;99.90
32612;DHT22;19030;49.478;8.986;2022-09-09T06:07:15;13.60;99.90
32612;DHT22;19030;49.478;8.986;2022-09-09T06:09:17;13.60;99.90
32612;DHT22;19030;49.478;8.986;2022-09-09T06:13:20;14.00;99.90
32612;DHT22;19030;49.478;8.986;2022-09-09T06:15:20;14.20;99.90
32612;DHT22;19030;49.478;8.986;2022-09-09T06:17:21;14.30;99.90
32612;DHT22;19030;49.478;8.986;2022-09-09T06:19:22;14.50;99.90
32612;DHT22;19030;49.478;8.986;2022-09-09T06:21:33;14.60;99.90
32612;DHT22;19030;49.478;8.986;2022-09-09T06:23:35;14.60;99.90
32612;DHT22;19030;49.478;8.986;2022-09-09T06:25:36;14.70;99.90
32612;DHT22;19030;49.478;8.986;2022-09-09T06:27:42;14.70;99.90
32612;DHT22;19030;49.478;8.986;2022-09-09T06:29:44;14.80;99.90
32612;DHT22;19030;49.478;8.986;2022-09-09T06:31:44;14.90;99.90
32612;DHT22;19030;49.478;8.986;2022-09-09T06:33:55;15.00;99.90
32612;DHT22;19030;49.478;8.986;2022-09-09T06:35:57;15.00;99.90
32612;DHT22;19030;49.478;8.986;2022-09-09T06:37:58;15.00;99.90
32612;DHT22;19030;49.478;8.986;2022-09-09T06:39:59;15.00;99.90
32612;DHT22;19030;49.478;8.986;2022-09-09T06:42:00;15.10;99.90
32612;DHT22;19030;49.478;8.986;2022-09-09T06:44:19;15.20;99.90
32612;DHT22;19030;49.478;8.986;2022-09-09T06:46:22;15.20;99.90
32612;DHT22;19030;49.478;8.986;2022-09-09T06:48:24;15.20;99.90
32612;DHT22;19030;49.478;8.986;2022-09-09T06:50:28;15.40;99.90
32612;DHT22;19030;49.478;8.986;2022-09-09T06:52:29;15.70;99.90
32612;DHT22;19030;49.478;8.986;2022-09-09T06:54:31;16.10;99.90
32612;DHT22;19030;49.478;8.986;2022-09-09T06:56:34;16.60;99.90
32612;DHT22;19030;49.478;8.986;2022-09-09T06:58:40;16.90;99.90
32612;DHT22;19030;49.478;8.986;2022-09-09T07:00:46;17.10;99.90
32612;DHT22;19030;49.478;8.986;2022-09-09T07:02:46;17.20;99.90
32612;DHT22;19030;49.478;8.986;2022-09-09T07:04:48;17.30;99.90
32612;DHT22;19030;49.478;8.986;2022-09-09T07:06:51;17.50;99.90
32612;DHT22;19030;49.478;8.986;2022-09-09T07:09:02;17.50;99.90
32612;DHT22;19030;49.478;8.986;2022-09-09T07:11:06;17.50;99.90
32612;DHT22;19030;49.478;8.986;2022-09-09T07:13:10;17.30;99.90
32612;DHT22;19030;49.478;8.986;2022-09-09T07:15:10;17.10;99.90
32612;DHT22;19030;49.478;8.986;2022-09-09T07:17:13;17.00;99.90
32612;DHT22;19030;49.478;8.986;2022-09-09T07:19:15;16.90;99.90
32612;DHT22;19030;49.478;8.986;2022-09-09T07:21:17;16.90;99.90
32612;DHT22;19030;49.478;8.986;2022-09-09T07:23:18;17.10;99.90
32612;DHT22;19030;49.478;8.986;2022-09-09T07:25:19;17.20;99.90
32612;DHT22;19030;49.478;8.986;2022-09-09T07:27:21;17.40;99.90
32612;DHT22;19030;49.478;8.986;2022-09-09T07:29:23;17.60;99.90
32612;DHT22;19030;49.478;8.986;2022-09-09T07:31:32;17.90;99.90
32612;DHT22;19030;49.478;8.986;2022-09-09T07:33:35;18.20;99.90
32612;DHT22;19030;49.478;8.986;2022-09-09T07:35:36;18.40;99.90
32612;DHT22;19030;49.478;8.986;2022-09-09T07:37:37;19.00;99.90
32612;DHT22;19030;49.478;8.986;2022-09-09T07:39:38;19.60;99.90
32612;DHT22;19030;49.478;8.986;2022-09-09T07:41:44;19.90;99.90
32612;DHT22;19030;49.478;8.986;2022-09-09T07:43:48;20.00;99.90
32612;DHT22;19030;49.478;8.986;2022-09-09T07:45:57;20.20;99.90
32612;DHT22;19030;49.478;8.986;2022-09-09T07:47:58;20.40;99.90
32612;DHT22;19030;49.478;8.986;2022-09-09T07:49:59;20.60;99.90
32612;DHT22;19030;49.478;8.986;2022-09-09T07:52:04;20.70;99.90
32612;DHT22;19030;49.478;8.986;2022-09-09T07:54:09;20.90;99.90
32612;DHT22;19030;49.478;8.986;2022-09-09T07:56:14;20.90;99.90
32612;DHT22;19030;49.478;8.986;2022-09-09T07:58:17;20.80;99.90
32612;DHT22;19030;49.478;8.986;2022-09-09T08:00:18;20.70;99.90
32612;DHT22;19030;49.478;8.986;2022-09-09T08:02:25;20.60;99.90
32612;DHT22;19030;49.478;8.986;2022-09-09T08:04:30;20.90;99.90
32612;DHT22;19030;49.478;8.986;2022-09-09T08:06:37;21.30;99.90
32612;DHT22;19030;49.478;8.986;2022-09-09T08:08:39;21.90;98.10
32612;DHT22;19030;49.478;8.986;2022-09-09T08:10:42;21.90;95.60
32612;DHT22;19030;49.478;8.986;2022-09-09T08:12:44;21.60;95.80
32612;DHT22;19030;49.478;8.986;2022-09-09T08:14:44;21.50;96.00
32612;DHT22;19030;49.478;8.986;2022-09-09T08:16:47;21.70;95.40
32612;DHT22;19030;49.478;8.986;2022-09-09T08:18:52;21.80;94.70
32612;DHT22;19030;49.478;8.986;2022-09-09T08:20:54;21.90;94.20
32612;DHT22;19030;49.478;8.986;2022-09-09T08:22:55;22.00;93.80
32612;DHT22;19030;49.478;8.986;2022-09-09T08:24:56;22.00;93.00
32612;DHT22;19030;49.478;8.986;2022-09-09T08:26:57;21.80;92.90
32612;DHT22;19030;49.478;8.986;2022-09-09T08:28:59;21.90;93.30
32612;DHT22;19030;49.478;8.986;2022-09-09T08:31:12;22.50;92.30
32612;DHT22;19030;49.478;8.986;2022-09-09T08:33:14;22.70;90.90
32612;DHT22;19030;49.478;8.986;2022-09-09T08:35:15;22.50;90.70
32612;DHT22;19030;49.478;8.986;2022-09-09T08:37:16;22.20;91.30
32612;DHT22;19030;49.478;8.986;2022-09-09T08:39:20;22.20;91.50
32612;DHT22;19030;49.478;8.986;2022-09-09T08:44:24;23.70;89.60
32612;DHT22;19030;49.478;8.986;2022-09-09T08:51:21;25.40;73.10
32612;DHT22;19030;49.478;8.986;2022-09-09T08:53:29;24.80;74.30
32612;DHT22;19030;49.478;8.986;2022-09-09T08:55:48;24.90;74.50
32612;DHT22;19030;49.478;8.986;2022-09-09T08:57:52;25.60;72.30
32612;DHT22;19030;49.478;8.986;2022-09-09T08:59:54;26.00;68.20
32612;DHT22;19030;49.478;8.986;2022-09-09T09:02:18;25.50;69.10
32612;DHT22;19030;49.478;8.986;2022-09-09T09:04:47;24.70;70.60
32612;DHT22;19030;49.478;8.986;2022-09-09T09:09:02;22.60;79.20
32612;DHT22;19030;49.478;8.986;2022-09-09T09:11:06;21.90;83.70
32612;DHT22;19030;49.478;8.986;2022-09-09T09:13:19;21.30;89.90
32612;DHT22;19030;49.478;8.986;2022-09-09T09:15:24;20.70;93.40
32612;DHT22;19030;49.478;8.986;2022-09-09T09:17:28;20.00;97.40
32612;DHT22;19030;49.478;8.986;2022-09-09T09:19:38;19.40;98.80
32612;DHT22;19030;49.478;8.986;2022-09-09T09:22:04;18.90;97.80
32612;DHT22;19030;49.478;8.986;2022-09-09T09:24:18;18.60;97.50
32612;DHT22;19030;49.478;8.986;2022-09-09T09:26:20;18.80;99.90
32612;DHT22;19030;49.478;8.986;2022-09-09T09:28:25;19.20;99.90
32612;DHT22;19030;49.478;8.986;2022-09-09T09:30:35;19.70;99.90
32612;DHT22;19030;49.478;8.986;2022-09-09T09:32:42;20.60;99.10
32612;DHT22;19030;49.478;8.986;2022-09-09T09:34:56;21.60;98.80
32612;DHT22;19030;49.478;8.986;2022-09-09T09:36:58;23.90;96.10
32612;DHT22;19030;49.478;8.986;2022-09-09T09:39:03;26.20;92.90
32612;DHT22;19030;49.478;8.986;2022-09-09T09:41:07;28.00;82.00
32612;DHT22;19030;49.478;8.986;2022-09-09T09:43:19;29.20;68.60
32612;DHT22;19030;49.478;8.986;2022-09-09T09:45:33;29.50;65.70
32612;DHT22;19030;49.478;8.986;2022-09-09T09:47:36;29.50;65.70
32612;DHT22;19030;49.478;8.986;2022-09-09T09:49:53;31.30;62.20
32612;DHT22;19030;49.478;8.986;2022-09-09T09:52:00;33.60;54.50
32612;DHT22;19030;49.478;8.986;2022-09-09T09:54:14;35.50;48.20
32612;DHT22;19030;49.478;8.986;2022-09-09T09:56:27;36.30;42.90
32612;DHT22;19030;49.478;8.986;2022-09-09T09:58:46;36.20;42.20
32612;DHT22;19030;49.478;8.986;2022-09-09T10:00:52;36.10;42.00
32612;DHT22;19030;49.478;8.986;2022-09-09T10:02:56;35.20;43.40
32612;DHT22;19030;49.478;8.986;2022-09-09T10:07:19;34.80;42.60
32612;DHT22;19030;49.478;8.986;2022-09-09T10:09:29;34.40;43.30
32612;DHT22;19030;49.478;8.986;2022-09-09T10:11:44;34.60;43.90
32612;DHT22;19030;49.478;8.986;2022-09-09T10:14:08;34.80;43.10
32612;DHT22;19030;49.478;8.986;2022-09-09T10:18:34;34.90;42.50
32612;DHT22;19030;49.478;8.986;2022-09-09T10:23:16;34.40;42.30
32612;DHT22;19030;49.478;8.986;2022-09-09T10:34:59;29.90;52.30
32612;DHT22;19030;49.478;8.986;2022-09-09T10:37:06;28.90;59.50
32612;DHT22;19030;49.478;8.986;2022-09-09T10:39:35;28.10;61.30
32612;DHT22;19030;49.478;8.986;2022-09-09T10:42:06;27.20;65.10
32612;DHT22;19030;49.478;8.986;2022-09-09T10:52:15;28.70;63.30
32612;DHT22;19030;49.478;8.986;2022-09-09T10:54:31;28.90;60.70
32612;DHT22;19030;49.478;8.986;2022-09-09T10:56:34;29.40;59.60
32612;DHT22;19030;49.478;8.986;2022-09-09T10:58:47;29.90;59.20
32612;DHT22;19030;49.478;8.986;2022-09-09T11:00:59;30.10;57.40
32612;DHT22;19030;49.478;8.986;2022-09-09T11:03:04;30.40;56.90
32612;DHT22;19030;49.478;8.986;2022-09-09T11:05:24;30.20;56.70
32612;DHT22;19030;49.478;8.986;2022-09-09T11:07:49;29.70;52.50
32612;DHT22;19030;49.478;8.986;2022-09-09T11:09:59;28.90;55.50
32612;DHT22;19030;49.478;8.986;2022-09-09T11:12:01;28.40;56.40
32612;DHT22;19030;49.478;8.986;2022-09-09T11:14:17;28.10;55.20
32612;DHT22;19030;49.478;8.986;2022-09-09T11:18:46;27.40;56.00
32612;DHT22;19030;49.478;8.986;2022-09-09T11:20:51;27.00;57.20
32612;DHT22;19030;49.478;8.986;2022-09-09T11:23:00;26.80;57.30
32612;DHT22;19030;49.478;8.986;2022-09-09T11:29:39;26.90;54.20
32612;DHT22;19030;49.478;8.986;2022-09-09T11:34:12;26.90;53.80
32612;DHT22;19030;49.478;8.986;2022-09-09T11:40:46;26.70;53.20
32612;DHT22;19030;49.478;8.986;2022-09-09T11:43:11;26.70;54.00
32612;DHT22;19030;49.478;8.986;2022-09-09T11:45:24;26.50;54.90
32612;DHT22;19030;49.478;8.986;2022-09-09T11:47:30;26.60;54.70
32612;DHT22;19030;49.478;8.986;2022-09-09T11:49:42;26.60;54.20
32612;DHT22;19030;49.478;8.986;2022-09-09T11:51:43;26.60;54.80
32612;DHT22;19030;49.478;8.986;2022-09-09T11:53:59;26.40;54.10
32612;DHT22;19030;49.478;8.986;2022-09-09T11:56:12;26.50;54.40
32612;DHT22;19030;49.478;8.986;2022-09-09T11:58:17;26.60;53.30
32612;DHT22;19030;49.478;8.986;2022-09-09T12:02:48;26.70;52.30
32612;DHT22;19030;49.478;8.986;2022-09-09T12:05:08;26.50;52.20
32612;DHT22;19030;49.478;8.986;2022-09-09T12:09:52;26.10;52.70
32612;DHT22;19030;49.478;8.986;2022-09-09T12:14:43;26.60;53.60
32612;DHT22;19030;49.478;8.986;2022-09-09T12:16:44;26.50;52.80
32612;DHT22;19030;49.478;8.986;2022-09-09T12:18:44;26.50;52.90
32612;DHT22;19030;49.478;8.986;2022-09-09T12:27:47;26.90;50.50
32612;DHT22;19030;49.478;8.986;2022-09-09T12:30:02;26.80;51.00
32612;DHT22;19030;49.478;8.986;2022-09-09T12:32:10;26.90;50.40
32612;DHT22;19030;49.478;8.986;2022-09-09T12:36:38;26.70;49.90
32612;DHT22;19030;49.478;8.986;2022-09-09T12:38:41;26.60;50.50
32612;DHT22;19030;49.478;8.986;2022-09-09T12:40:42;26.50;50.30
32612;DHT22;19030;49.478;8.986;2022-09-09T12:42:42;26.30;50.40
32612;DHT22;19030;49.478;8.986;2022-09-09T12:45:03;26.20;51.40
32612;DHT22;19030;49.478;8.986;2022-09-09T12:47:06;26.50;50.70
32612;DHT22;19030;49.478;8.986;2022-09-09T12:49:35;27.20;50.80
32612;DHT22;19030;49.478;8.986;2022-09-09T12:51:36;27.40;50.20
32612;DHT22;19030;49.478;8.986;2022-09-09T12:53:38;27.50;49.60
32612;DHT22;19030;49.478;8.986;2022-09-09T12:55:53;27.00;50.10
32612;DHT22;19030;49.478;8.986;2022-09-09T12:57:54;26.90;50.60
32612;DHT22;19030;49.478;8.986;2022-09-09T13:00:06;26.70;51.10
32612;DHT22;19030;49.478;8.986;2022-09-09T13:04:21;26.50;53.00
32612;DHT22;19030;49.478;8.986;2022-09-09T13:06:32;26.30;52.80
32612;DHT22;19030;49.478;8.986;2022-09-09T13:08:32;25.80;52.10
32612;DHT22;19030;49.478;8.986;2022-09-09T13:10:36;25.60;53.60
32612;DHT22;19030;49.478;8.986;2022-09-09T13:12:39;25.40;53.60
32612;DHT22;19030;49.478;8.986;2022-09-09T13:14:44;25.30;54.20
32612;DHT22;19030;49.478;8.986;2022-09-09T13:16:58;25.30;54.20
32612;DHT22;19030;49.478;8.986;2022-09-09T13:19:07;25.20;54.30
32612;DHT22;19030;49.478;8.986;2022-09-09T13:21:09;24.90;54.80
32612;DHT22;19030;49.478;8.986;2022-09-09T13:23:11;24.70;55.60
32612;DHT22;19030;49.478;8.986;2022-09-09T13:27:31;24.50;55.90
32612;DHT22;19030;49.478;8.986;2022-09-09T13:29:34;24.80;55.50
32612;DHT22;19030;49.478;8.986;2022-09-09T13:31:36;24.70;54.60
32612;DHT22;19030;49.478;8.986;2022-09-09T13:33:38;24.30;55.20
32612;DHT22;19030;49.478;8.986;2022-09-09T13:35:47;24.10;56.00
32612;DHT22;19030;49.478;8.986;2022-09-09T13:37:49;23.70;56.10
32612;DHT22;19030;49.478;8.986;2022-09-09T13:39:54;23.30;56.40
32612;DHT22;19030;49.478;8.986;2022-09-09T13:41:55;23.00;57.70
32612;DHT22;19030;49.478;8.986;2022-09-09T13:43:55;22.70;58.40
32612;DHT22;19030;49.478;8.986;2022-09-09T13:46:03;22.40;59.40
32612;DHT22;19030;49.478;8.986;2022-09-09T13:48:10;22.20;60.80
32612;DHT22;19030;49.478;8.986;2022-09-09T13:50:28;22.00;61.10
32612;DHT22;19030;49.478;8.986;2022-09-09T13:52:29;21.80;62.80
32612;DHT22;19030;49.478;8.986;2022-09-09T13:54:31;21.70;63.60
32612;DHT22;19030;49.478;8.986;2022-09-09T13:56:36;21.60;64.80
32612;DHT22;19030;49.478;8.986;2022-09-09T13:58:37;21.30;65.20
32612;DHT22;19030;49.478;8.986;2022-09-09T14:00:37;21.20;66.40
32612;DHT22;19030;49.478;8.986;2022-09-09T14:02:38;21.00;67.90
32612;DHT22;19030;49.478;8.986;2022-09-09T14:04:39;20.90;68.10
32612;DHT22;19030;49.478;8.986;2022-09-09T14:06:41;20.70;69.30
32612;DHT22;19030;49.478;8.986;2022-09-09T14:08:43;20.60;70.80
32612;DHT22;19030;49.478;8.986;2022-09-09T14:10:46;20.30;73.10
32612;DHT22;19030;49.478;8.986;2022-09-09T14:12:46;20.10;74.00
32612;DHT22;19030;49.478;8.986;2022-09-09T14:14:47;19.90;75.70
32612;DHT22;19030;49.478;8.986;2022-09-09T14:16:47;19.70;77.40
32612;DHT22;19030;49.478;8.986;2022-09-09T14:18:48;19.50;80.30
32612;DHT22;19030;49.478;8.986;2022-09-09T14:20:49;19.40;83.10
32612;DHT22;19030;49.478;8.986;2022-09-09T14:22:50;19.30;86.00
32612;DHT22;19030;49.478;8.986;2022-09-09T14:24:51;19.20;86.40
32612;DHT22;19030;49.478;8.986;2022-09-09T14:26:51;19.00;88.50
32612;DHT22;19030;49.478;8.986;2022-09-09T14:28:52;18.90;89.30
32612;DHT22;19030;49.478;8.986;2022-09-09T14:30:53;19.00;89.20
32612;DHT22;19030;49.478;8.986;2022-09-09T14:32:53;19.10;89.80
32612;DHT22;19030;49.478;8.986;2022-09-09T14:34:54;19.30;93.10
32612;DHT22;19030;49.478;8.986;2022-09-09T14:36:54;19.50;95.40
32612;DHT22;19030;49.478;8.986;2022-09-09T14:38:55;19.80;97.60
32612;DHT22;19030;49.478;8.986;2022-09-09T14:40:56;20.20;98.20
32612;DHT22;19030;49.478;8.986;2022-09-09T14:42:56;20.60;97.10
32612;DHT22;19030;49.478;8.986;2022-09-09T14:44:57;21.40;97.70
32612;DHT22;19030;49.478;8.986;2022-09-09T14:46:58;22.00;95.60
32612;DHT22;19030;49.478;8.986;2022-09-09T14:48:59;22.60;90.40
32612;DHT22;19030;49.478;8.986;2022-09-09T14:51:14;23.10;83.20
32612;DHT22;19030;49.478;8.986;2022-09-09T14:53:16;23.30;84.30
32612;DHT22;19030;49.478;8.986;2022-09-09T14:55:17;23.30;85.30